Time;durP1;ratioP1;P1;durP2;ratioP2;P2;SDS_P1;SDS_P2;PMS_P1;PMS_P2;Temp;Humidity;BMP_temperature;BMP_pressure;BME280_temperature;BME280_humidity;BME280_pressure;Samples;Min_cycle;Max_cycle;Signal;HPM_P1;HPM_P2
2021/04/06 00:00:10;;;;;;;8.67;4.33;;;;;;;1.21;99.71;98873.63;20893711;28;20308;-55
2021/04/06 00:10:16;;;;;;;9.43;4.77;;;;;;;1.07;100.00;98872.50;20873791;28;20223;-64
2021/04/06 00:20:18;;;;;;;7.13;4.03;;;;;;;1.07;100.00;98896.16;20892681;28;20310;-55
2021/04/06 00:40:15;;;;;;;12.10;6.30;;;;;;;0.68;100.00;98905.91;21049762;27;20605;-56
2021/04/06 00:50:16;;;;;;;5.87;4.10;;;;;;;0.55;100.00;98910.88;21043262;27;20268;-61
2021/04/06 01:00:20;;;;;;;6.83;3.90;;;;;;;0.62;100.00;98921.94;21059041;27;20217;-56
2021/04/06 01:10:21;;;;;;;7.50;3.70;;;;;;;0.64;100.00;98941.94;21044221;27;20444;-53
2021/04/06 01:20:25;;;;;;;6.43;3.70;;;;;;;0.78;99.92;98959.69;21021387;27;20221;-57
2021/04/06 01:40:22;;;;;;;6.93;3.03;;;;;;;1.24;95.76;98984.63;20871960;27;20594;-54
2021/04/06 01:50:23;;;;;;;4.75;2.72;;;;;;;1.24;95.75;98995.16;20877188;28;20358;-56
2021/04/06 02:10:36;;;;;;;7.00;3.90;;;;;;;1.45;94.19;99015.13;20869385;28;20730;-57
2021/04/06 02:20:37;;;;;;;5.60;2.83;;;;;;;1.51;92.86;99014.00;20871663;28;20666;-57
2021/04/06 02:30:37;;;;;;;6.37;3.33;;;;;;;1.54;91.99;99023.53;20861117;28;20231;-57
2021/04/06 02:40:38;;;;;;;7.20;2.95;;;;;;;1.54;91.75;99032.25;20876829;28;20220;-56
2021/04/06 02:50:42;;;;;;;6.15;3.00;;;;;;;1.59;90.47;99051.28;20804569;28;20282;-57
2021/04/06 03:00:43;;;;;;;4.53;2.50;;;;;;;1.68;90.81;99042.97;20819988;28;20216;-54
2021/04/06 03:10:43;;;;;;;6.87;3.23;;;;;;;1.69;90.55;99049.91;20797153;28;20220;-57
2021/04/06 03:20:44;;;;;;;6.70;2.70;;;;;;;1.66;93.74;99050.06;20816930;28;20850;-56
2021/04/06 03:30:45;;;;;;;5.40;2.60;;;;;;;1.47;96.90;99043.97;20802174;28;20236;-56
2021/04/06 03:40:45;;;;;;;7.53;2.50;;;;;;;1.29;96.86;99044.88;20810255;28;20451;-54
2021/04/06 03:50:46;;;;;;;7.78;2.75;;;;;;;1.06;95.03;99038.91;20789522;28;20213;-54
2021/04/06 04:00:46;;;;;;;4.30;2.53;;;;;;;0.97;94.76;99044.56;20800638;28;20583;-55
2021/04/06 04:20:42;;;;;;;6.77;2.40;;;;;;;1.16;95.21;99057.72;21018272;27;20705;-55
2021/04/06 04:30:47;;;;;;;9.23;4.13;;;;;;;1.54;92.51;99071.69;20889813;28;20314;-55
2021/04/06 04:40:49;;;;;;;4.20;2.90;;;;;;;1.87;89.69;99073.63;20881781;28;20223;-55
2021/04/06 04:50:50;;;;;;;7.33;2.90;;;;;;;1.77;89.34;99047.78;20916793;28;20261;-55
2021/04/06 05:00:50;;;;;;;5.03;2.67;;;;;;;2.11;89.37;99061.88;20918082;28;20219;-55
2021/04/06 05:10:51;;;;;;;4.88;2.97;;;;;;;2.17;87.16;99077.38;20856044;28;20250;-60
2021/04/06 05:20:51;;;;;;;4.80;3.20;;;;;;;2.22;87.36;99085.88;20828625;28;20223;-56
2021/04/06 05:30:52;;;;;;;6.38;3.63;;;;;;;2.32;87.41;99102.06;20777723;28;20220;-55
2021/04/06 05:40:52;;;;;;;6.28;3.67;;;;;;;2.45;87.15;99125.06;20783851;28;20275;-56
2021/04/06 05:50:53;;;;;;;9.57;3.83;;;;;;;2.69;87.82;99116.84;20743417;28;20242;-58
2021/04/06 06:00:54;;;;;;;6.80;4.13;;;;;;;2.84;86.71;99135.34;20735543;28;20234;-56
2021/04/06 06:11:04;;;;;;;7.53;4.30;;;;;;;2.79;84.87;99144.41;20728480;28;20754;-60
2021/04/06 06:21:05;;;;;;;7.87;3.90;;;;;;;2.56;87.87;99178.94;20755013;28;20253;-56
2021/04/06 06:31:06;;;;;;;8.03;4.03;;;;;;;2.47;88.53;99181.13;20708827;28;20236;-59
2021/04/06 06:41:17;;;;;;;8.57;4.57;;;;;;;2.58;87.19;99187.63;20707155;28;20474;-57
2021/04/06 06:51:18;;;;;;;9.67;5.50;;;;;;;2.75;85.93;99200.81;20728327;28;20242;-58
2021/04/06 07:11:28;;;;;;;19.30;11.63;;;;;;;2.85;84.85;99202.06;20910594;27;20309;-58
2021/04/06 07:21:29;;;;;;;14.43;7.23;;;;;;;3.22;84.08;99206.28;20888999;28;20227;-57
2021/04/06 07:31:29;;;;;;;12.27;5.73;;;;;;;3.64;81.47;99229.53;20911833;28;20307;-58
2021/04/06 07:41:34;;;;;;;9.83;4.43;;;;;;;4.07;81.29;99217.50;20857402;28;20228;-60
2021/04/06 07:51:39;;;;;;;9.03;4.50;;;;;;;4.23;78.50;99212.19;20819457;28;20233;-58
2021/04/06 08:01:40;;;;;;;10.23;4.23;;;;;;;3.96;75.85;99231.28;20808055;28;20249;-65
2021/04/06 08:12:18;;;;;;;8.97;3.87;;;;;;;3.71;77.35;99224.78;20799740;28;20237;-59
2021/04/06 08:22:25;;;;;;;8.97;4.57;;;;;;;3.53;75.88;99213.41;20772064;28;20306;-59
2021/04/06 08:32:25;;;;;;;10.20;5.37;;;;;;;4.01;76.99;99232.81;20763167;28;20229;-58
2021/04/06 08:42:27;;;;;;;11.47;4.90;;;;;;;5.04;72.62;99259.47;20743336;28;20257;-58
2021/04/06 08:52:28;;;;;;;10.23;4.87;;;;;;;5.09;70.41;99251.25;20776826;28;20377;-57
2021/04/06 09:02:28;;;;;;;15.65;6.55;;;;;;;5.71;72.07;99251.91;20788823;28;20227;-57
2021/04/06 09:12:29;;;;;;;7.80;4.87;;;;;;;6.09;67.97;99242.47;20771325;28;20219;-57
2021/04/06 09:22:29;;;;;;;13.93;5.90;;;;;;;6.47;68.96;99252.44;20758078;28;20246;-58
2021/04/06 09:32:30;;;;;;;8.47;4.50;;;;;;;6.86;66.55;99252.47;20777990;28;20462;-58
2021/04/06 09:42:30;;;;;;;10.00;4.65;;;;;;;6.17;68.19;99252.56;20748256;28;20938;-58
2021/04/06 09:52:31;;;;;;;6.97;3.40;;;;;;;5.80;66.49;99267.22;20782144;28;20228;-58
2021/04/06 10:02:31;;;;;;;8.55;3.45;;;;;;;5.30;66.88;99281.75;20742921;28;20292;-57
2021/04/06 10:12:32;;;;;;;8.20;3.77;;;;;;;4.65;67.72;99269.69;20750234;28;20231;-58
2021/04/06 10:22:51;;;;;;;7.83;4.10;;;;;;;4.55;68.13;99256.16;20783770;28;20522;-60
2021/04/06 10:33:04;;;;;;;9.43;3.67;;;;;;;4.76;66.27;99258.50;20762619;28;20310;-58
2021/04/06 10:43:07;;;;;;;6.50;2.90;;;;;;;4.98;65.37;99258.97;20778716;28;20231;-57
2021/04/06 10:53:23;;;;;;;13.67;4.07;;;;;;;4.62;65.89;99233.72;20768066;28;20238;-58
2021/04/06 11:03:24;;;;;;;8.67;2.97;;;;;;;4.83;62.84;99252.75;20788366;28;20309;-58
2021/04/06 11:13:25;;;;;;;9.43;3.20;;;;;;;5.67;61.13;99258.34;20788459;28;20305;-58
2021/04/06 11:23:25;;;;;;;7.03;2.47;;;;;;;6.54;59.76;99277.56;20786139;28;20939;-58
2021/04/06 11:33:26;;;;;;;5.90;2.70;;;;;;;6.68;53.70;99248.38;20789668;28;20223;-62
2021/04/06 11:53:23;;;;;;;5.13;2.70;;;;;;;6.18;55.53;99271.97;21022466;27;20660;-59
2021/04/06 12:03:25;;;;;;;6.83;2.70;;;;;;;6.51;57.48;99285.75;21042083;28;20252;-59
2021/04/06 12:13:25;;;;;;;7.27;3.53;;;;;;;7.12;56.75;99279.09;21024944;28;20261;-61
2021/04/06 12:23:26;;;;;;;9.02;4.57;;;;;;;6.99;56.15;99268.44;21024833;28;20234;-58
2021/04/06 12:33:26;;;;;;;5.00;2.70;;;;;;;6.73;56.09;99267.50;21023849;28;20228;-59
2021/04/06 12:43:27;;;;;;;4.82;2.72;;;;;;;6.80;54.81;99271.44;21021286;28;20681;-58
2021/04/06 12:53:27;;;;;;;4.63;2.43;;;;;;;6.54;55.88;99274.91;21019309;28;20215;-58
2021/04/06 13:03:28;;;;;;;6.63;2.63;;;;;;;6.09;55.83;99262.81;20978113;28;20215;-57
2021/04/06 13:13:28;;;;;;;5.37;2.57;;;;;;;5.96;54.66;99259.22;20978512;28;20325;-58
2021/04/06 13:23:29;;;;;;;5.90;2.80;;;;;;;6.01;54.98;99262.44;20987871;28;20715;-57
2021/04/06 13:33:30;;;;;;;6.17;2.57;;;;;;;6.24;55.66;99263.66;20987275;28;20564;-56
2021/04/06 13:43:31;;;;;;;5.27;2.43;;;;;;;6.71;55.70;99264.09;20968155;28;20227;-58
2021/04/06 13:53:32;;;;;;;5.63;2.77;;;;;;;7.04;57.58;99265.47;20980457;28;20230;-56
2021/04/06 14:03:32;;;;;;;6.43;3.40;;;;;;;7.02;55.55;99262.06;20975639;28;20585;-56
2021/04/06 14:13:33;;;;;;;6.30;2.73;;;;;;;6.49;56.73;99250.53;20952095;28;20460;-57
2021/04/06 14:23:33;;;;;;;9.00;3.27;;;;;;;6.14;57.23;99243.03;20962824;28;20215;-56
2021/04/06 14:33:34;;;;;;;5.07;2.43;;;;;;;6.22;57.00;99239.03;20981310;28;20468;-60
2021/04/06 14:43:36;;;;;;;8.10;3.20;;;;;;;6.50;56.78;99238.97;20976482;28;20254;-65
2021/04/06 14:53:37;;;;;;;8.50;3.50;;;;;;;6.35;57.19;99230.22;20955684;28;20226;-59
2021/04/06 15:03:38;;;;;;;6.07;3.40;;;;;;;6.19;58.27;99233.94;20931220;28;20720;-59
2021/04/06 15:13:40;;;;;;;6.53;3.40;;;;;;;6.08;58.81;99216.94;20915679;28;20320;-62
2021/04/06 15:23:40;;;;;;;8.17;4.40;;;;;;;5.84;59.87;99215.78;20911672;28;20341;-56
2021/04/06 15:33:41;;;;;;;9.00;4.20;;;;;;;5.30;59.47;99210.31;20914655;28;20254;-57
2021/04/06 15:43:42;;;;;;;7.23;3.17;;;;;;;5.12;61.16;99219.34;20902791;28;20704;-55
2021/04/06 15:53:43;;;;;;;6.10;3.07;;;;;;;5.30;61.09;99207.69;20890915;28;20242;-56
2021/04/06 16:03:44;;;;;;;7.93;4.03;;;;;;;5.17;59.84;99205.88;20894479;28;20575;-54
2021/04/06 16:13:44;;;;;;;7.57;3.33;;;;;;;5.18;61.10;99208.41;20894113;28;20596;-53
2021/04/06 16:23:46;;;;;;;6.17;2.77;;;;;;;5.04;61.40;99200.44;20893284;28;20243;-56
2021/04/06 16:33:48;;;;;;;7.60;5.03;;;;;;;4.99;63.49;99197.22;20898973;28;20221;-58
2021/04/06 16:43:49;;;;;;;6.50;3.37;;;;;;;5.07;64.04;99195.00;20908212;28;20272;-58
2021/04/06 16:53:49;;;;;;;7.10;3.70;;;;;;;5.00;63.97;99188.34;20907060;28;20310;-57
2021/04/06 17:03:51;;;;;;;7.47;4.07;;;;;;;4.78;64.07;99172.06;20907142;28;20221;-56
2021/04/06 17:13:52;;;;;;;6.27;3.17;;;;;;;4.65;64.26;99193.91;20906470;28;20663;-56
2021/04/06 17:23:53;;;;;;;8.60;4.77;;;;;;;4.38;65.03;99195.50;20904871;28;20227;-60
2021/04/06 17:33:53;;;;;;;24.27;10.13;;;;;;;4.23;65.47;99201.63;20922126;28;20664;-57
2021/04/06 17:43:54;;;;;;;10.23;5.83;;;;;;;4.13;66.06;99200.47;20943198;28;20239;-56
2021/04/06 17:53:55;;;;;;;19.33;8.60;;;;;;;3.94;69.08;99203.28;20897030;28;20478;-54
2021/04/06 18:03:55;;;;;;;13.10;7.13;;;;;;;3.77;70.57;99216.53;20904203;28;20271;-60
2021/04/06 18:13:57;;;;;;;8.25;5.57;;;;;;;3.67;71.21;99229.38;20909009;28;20224;-54
2021/04/06 18:23:57;;;;;;;8.13;5.40;;;;;;;3.58;71.47;99230.72;20856989;28;20576;-57
2021/04/06 18:33:58;;;;;;;13.33;5.80;;;;;;;3.24;71.22;99238.69;20904601;28;20230;-57
2021/04/06 18:43:58;;;;;;;11.30;6.83;;;;;;;3.02;71.52;99238.91;20886469;28;20568;-57
2021/04/06 18:53:59;;;;;;;15.27;6.60;;;;;;;2.96;71.26;99236.59;20905515;28;20471;-56
2021/04/06 19:04:00;;;;;;;11.93;6.93;;;;;;;2.92;70.88;99240.31;20890490;28;20342;-56
2021/04/06 19:14:00;;;;;;;13.00;7.43;;;;;;;2.71;71.91;99236.13;20900145;28;20735;-57
2021/04/06 19:24:02;;;;;;;14.43;8.63;;;;;;;2.66;70.98;99227.59;20896814;28;20230;-56
2021/04/06 19:34:05;;;;;;;15.97;9.23;;;;;;;2.71;71.67;99228.22;20894608;28;21270;-55
2021/04/06 19:44:06;;;;;;;17.73;9.47;;;;;;;2.75;71.12;99232.44;20904223;28;20246;-58
2021/04/06 19:54:07;;;;;;;16.60;9.80;;;;;;;2.34;70.41;99187.91;20885620;28;20230;-57
2021/04/06 20:04:08;;;;;;;18.23;9.73;;;;;;;2.49;70.60;99223.19;20903385;28;20235;-59
2021/04/06 20:14:09;;;;;;;13.53;9.27;;;;;;;2.27;70.93;99235.69;20880098;28;20231;-57
2021/04/06 20:24:13;;;;;;;14.40;8.60;;;;;;;1.99;71.72;99233.47;20917968;28;20315;-57
2021/04/06 20:34:17;;;;;;;14.07;8.77;;;;;;;2.10;72.51;99239.09;20902020;28;20226;-57
2021/04/06 20:44:17;;;;;;;16.47;9.17;;;;;;;1.90;71.62;99241.81;20912383;28;20230;-58
2021/04/06 20:54:18;;;;;;;19.70;11.30;;;;;;;1.64;73.25;99251.75;20901311;28;20230;-57
2021/04/06 21:04:20;;;;;;;28.30;12.77;;;;;;;1.76;72.58;99251.19;20905832;28;20879;-61
2021/04/06 21:14:21;;;;;;;19.17;10.30;;;;;;;1.92;73.87;99251.34;20911822;28;20274;-64
2021/04/06 21:24:21;;;;;;;16.27;9.40;;;;;;;2.00;73.83;99258.88;20877047;28;20247;-59
2021/04/06 21:44:14;;;;;;;14.07;7.97;;;;;;;2.03;73.94;99237.69;20937285;27;21110;-66
2021/04/06 21:54:14;;;;;;;13.70;8.10;;;;;;;2.03;72.53;99242.94;20927764;28;20246;-60
2021/04/06 22:04:15;;;;;;;19.80;9.77;;;;;;;2.01;72.35;99239.53;20936165;28;20218;-60
2021/04/06 22:14:16;;;;;;;20.30;10.57;;;;;;;1.81;71.31;99222.88;20933035;28;20268;-57
2021/04/06 22:24:17;;;;;;;16.77;9.77;;;;;;;1.57;72.13;99224.00;20940995;28;20211;-62
2021/04/06 22:34:17;;;;;;;13.93;8.77;;;;;;;1.33;73.07;99225.94;20942148;28;20262;-58
2021/04/06 22:44:18;;;;;;;18.80;9.30;;;;;;;1.01;73.95;99222.13;20947370;28;20225;-59
2021/04/06 22:54:18;;;;;;;15.20;8.97;;;;;;;0.57;76.35;99229.25;20884575;28;20224;-56
2021/04/06 23:04:19;;;;;;;12.75;8.20;;;;;;;0.25;76.98;99212.16;20894953;28;20462;-56
2021/04/06 23:14:21;;;;;;;41.60;18.87;;;;;;;0.23;77.64;99214.03;20871599;28;20230;-55
2021/04/06 23:34:20;;;;;;;14.80;9.20;;;;;;;-0.20;80.13;99225.31;20867629;27;21244;-56
2021/04/06 23:44:20;;;;;;;11.73;7.93;;;;;;;-0.49;81.63;99217.72;20882533;28;20316;-57
2021/04/06 23:54:21;;;;;;;12.97;7.87;;;;;;;-0.71;82.30;99207.16;20864700;28;20227;-56
